createdAt,value
2018-03-21T00:01:51.813Z,39.80
2018-03-21T00:04:20.910Z,28.63
2018-03-21T00:06:49.988Z,36.63
2018-03-21T00:09:18.310Z,29.77
2018-03-21T00:11:47.980Z,32.50
2018-03-21T00:14:16.324Z,19.33
2018-03-21T00:16:44.668Z,29.07
2018-03-21T00:19:13.808Z,29.93
2018-03-21T00:21:42.112Z,25.97
2018-03-21T00:24:10.413Z,27.40
2018-03-21T00:26:39.532Z,25.10
2018-03-21T00:29:08.775Z,22.73
2018-03-21T00:31:37.081Z,36.50
2018-03-21T00:34:05.408Z,35.33
2018-03-21T00:36:33.723Z,25.40
2018-03-21T00:39:02.090Z,41.37
2018-03-21T00:41:30.442Z,31.37
2018-03-21T00:43:58.759Z,27.43
2018-03-21T00:46:27.114Z,28.10
2018-03-21T00:48:56.460Z,39.73
2018-03-21T00:51:24.792Z,30.17
2018-03-21T00:53:53.144Z,34.33
2018-03-21T00:56:21.508Z,34.30
2018-03-21T00:58:49.821Z,39.43
2018-03-21T01:01:18.319Z,32.57
2018-03-21T01:03:46.632Z,32.13
2018-03-21T01:06:15.704Z,38.53
2018-03-21T01:08:44.037Z,34.63
2018-03-21T01:11:12.365Z,24.87
2018-03-21T01:13:40.723Z,26.33
2018-03-21T01:16:09.051Z,28.43
2018-03-21T01:18:38.134Z,21.17
2018-03-21T01:21:07.121Z,22.73
2018-03-21T01:23:35.426Z,26.70
2018-03-21T01:26:04.504Z,27.37
2018-03-21T01:28:32.848Z,21.27
2018-03-21T01:31:01.154Z,22.40
2018-03-21T01:33:29.484Z,33.90
2018-03-21T01:35:58.576Z,27.73
2018-03-21T01:38:27.650Z,23.40
2018-03-21T01:40:55.991Z,28.30
2018-03-21T01:43:24.307Z,20.67
2018-03-21T01:45:52.613Z,33.73
2018-03-21T01:48:21.697Z,38.63
2018-03-21T01:50:50.010Z,27.57
2018-03-21T01:53:18.317Z,37.30
2018-03-21T01:55:46.661Z,32.90
2018-03-21T01:58:15.800Z,40.07
2018-03-21T02:00:44.103Z,28.30
2018-03-21T02:03:12.413Z,26.90
2018-03-21T02:05:40.717Z,31.43
2018-03-21T02:08:09.845Z,26.80
2018-03-21T02:10:38.158Z,33.47
2018-03-21T02:13:06.478Z,17.70
2018-03-21T02:15:35.560Z,27.83
2018-03-21T02:18:04.676Z,32.23
2018-03-21T02:20:33.759Z,22.40
2018-03-21T02:23:02.066Z,31.80
2018-03-21T02:25:31.145Z,25.50
2018-03-21T02:28:00.225Z,24.83
2018-03-21T02:30:28.536Z,25.67
2018-03-21T02:32:57.626Z,27.53
2018-03-21T02:35:26.030Z,25.20
2018-03-21T02:37:55.117Z,29.93
2018-03-21T02:40:24.192Z,28.50
2018-03-21T02:42:52.534Z,25.37
2018-03-21T02:45:20.845Z,24.60
2018-03-21T02:47:49.154Z,25.53
2018-03-21T02:50:17.474Z,31.33
2018-03-21T02:52:45.774Z,26.53
2018-03-21T02:55:14.097Z,25.83
2018-03-21T02:57:42.406Z,25.07
2018-03-21T03:00:10.744Z,18.95
2018-03-21T03:02:39.816Z,18.43
2018-03-21T03:05:08.126Z,21.95
2018-03-21T03:07:36.449Z,18.27
2018-03-21T03:10:05.542Z,19.50
2018-03-21T03:12:34.612Z,29.00
2018-03-21T03:15:02.932Z,23.10
2018-03-21T03:17:32.023Z,28.17
2018-03-21T03:20:01.223Z,21.60
2018-03-21T03:22:30.293Z,22.20
2018-03-21T03:24:58.623Z,22.77
2018-03-21T03:27:26.937Z,21.93
2018-03-21T03:29:55.237Z,24.70
2018-03-21T03:32:23.527Z,21.17
2018-03-21T03:34:51.915Z,23.27
2018-03-21T03:37:20.216Z,22.37
2018-03-21T03:39:49.337Z,24.07
2018-03-21T03:42:17.637Z,19.45
2018-03-21T03:44:45.945Z,22.47
2018-03-21T03:47:14.253Z,20.83
2018-03-21T03:49:43.327Z,29.00
2018-03-21T03:52:11.649Z,22.17
2018-03-21T03:54:39.975Z,19.50
2018-03-21T03:57:08.311Z,33.65
2018-03-21T03:59:37.385Z,23.83
2018-03-21T04:02:05.697Z,28.70
2018-03-21T04:04:34.007Z,26.17
2018-03-21T04:07:02.374Z,30.30
2018-03-21T04:09:30.721Z,22.15
2018-03-21T04:11:59.032Z,43.07
2018-03-21T04:14:27.480Z,28.30
2018-03-21T04:16:55.805Z,31.15
2018-03-21T04:19:24.847Z,35.37
2018-03-21T04:21:53.169Z,32.47
2018-03-21T04:24:22.255Z,41.10
2018-03-21T04:26:51.337Z,45.50
2018-03-21T04:29:20.442Z,36.25
2018-03-21T04:31:48.744Z,38.47
2018-03-21T04:34:17.818Z,51.30
2018-03-21T04:36:46.119Z,41.57
2018-03-21T04:39:15.236Z,39.42
2018-03-21T04:41:43.575Z,47.73
2018-03-21T04:44:11.891Z,43.80
2018-03-21T04:46:40.959Z,42.47
2018-03-21T04:49:09.817Z,51.53
2018-03-21T04:51:38.107Z,55.43
2018-03-21T04:54:06.426Z,51.07
2018-03-21T04:56:34.719Z,58.20
2018-03-21T04:59:03.802Z,57.80
2018-03-21T05:01:32.097Z,54.27
2018-03-21T05:04:00.420Z,56.70
2018-03-21T05:06:28.733Z,60.05
2018-03-21T05:08:57.068Z,68.62
2018-03-21T05:11:25.679Z,59.13
2018-03-21T05:13:54.069Z,56.60
2018-03-21T05:16:22.380Z,48.57
2018-03-21T05:18:50.717Z,47.27
2018-03-21T05:21:19.050Z,45.47
2018-03-21T05:23:47.451Z,37.80
2018-03-21T05:26:15.775Z,38.10
2018-03-21T05:28:44.095Z,33.60
2018-03-21T05:31:12.407Z,45.40
2018-03-21T05:33:41.484Z,45.83
2018-03-21T05:36:09.793Z,50.33
2018-03-21T05:38:38.891Z,50.50
2018-03-21T05:41:07.971Z,40.38
2018-03-21T05:43:36.285Z,41.47
2018-03-21T05:46:04.608Z,32.03
2018-03-21T05:48:32.924Z,44.10
2018-03-21T05:51:01.263Z,31.42
2018-03-21T05:53:29.585Z,32.28
2018-03-21T05:55:58.666Z,34.67
2018-03-21T05:58:27.015Z,33.22
2018-03-21T06:00:55.369Z,31.60
2018-03-21T06:03:23.695Z,24.43
2018-03-21T06:05:52.025Z,40.33
2018-03-21T06:08:20.358Z,43.22
2018-03-21T06:10:48.676Z,36.40
2018-03-21T06:13:17.771Z,40.10
2018-03-21T06:15:46.136Z,37.97
2018-03-21T06:18:14.436Z,43.13
2018-03-21T06:20:42.737Z,44.20
2018-03-21T06:23:11.823Z,35.80
2018-03-21T06:25:40.135Z,29.73
2018-03-21T06:28:08.453Z,30.70
2018-03-21T06:30:37.579Z,30.20
2018-03-21T06:33:07.500Z,39.30
2018-03-21T06:35:35.803Z,34.63
2018-03-21T06:38:04.884Z,30.17
2018-03-21T06:40:33.180Z,30.17
2018-03-21T06:43:02.256Z,40.70
2018-03-21T06:45:30.561Z,36.70
2018-03-21T06:47:59.617Z,34.63
2018-03-21T06:50:27.975Z,37.53
2018-03-21T06:52:56.363Z,42.20
2018-03-21T06:55:24.679Z,36.90
2018-03-21T06:57:53.003Z,29.70
2018-03-21T07:00:21.512Z,28.13
2018-03-21T07:02:49.829Z,32.00
2018-03-21T07:05:18.152Z,33.90
2018-03-21T07:07:47.224Z,34.67
2018-03-21T07:10:15.529Z,26.03
2018-03-21T07:12:44.705Z,31.43
2018-03-21T07:15:30.736Z,35.27
2018-03-21T07:17:59.041Z,25.53
2018-03-21T07:20:27.337Z,26.70
2018-03-21T07:22:55.655Z,25.77
2018-03-21T07:25:24.710Z,26.23
2018-03-21T07:27:53.001Z,16.50
2018-03-21T07:30:21.335Z,18.23
2018-03-21T07:32:49.655Z,19.80
2018-03-21T07:35:17.979Z,23.17
2018-03-21T07:37:46.267Z,16.77
2018-03-21T07:40:15.343Z,18.10
2018-03-21T07:42:43.664Z,17.10
2018-03-21T07:45:12.829Z,20.40
2018-03-21T07:47:41.134Z,18.87
2018-03-21T07:50:09.463Z,18.43
2018-03-21T07:52:37.773Z,14.90
2018-03-21T07:55:06.082Z,13.90
2018-03-21T07:57:35.147Z,15.87
2018-03-21T08:00:03.438Z,12.43
2018-03-21T08:02:31.756Z,11.27
2018-03-21T08:05:00.057Z,14.93
2018-03-21T08:07:28.355Z,9.07
2018-03-21T08:09:56.694Z,9.27
2018-03-21T08:12:25.771Z,13.60
2018-03-21T08:14:54.405Z,10.73
2018-03-21T08:17:22.720Z,14.63
2018-03-21T08:19:51.052Z,13.83
2018-03-21T08:22:20.131Z,14.60
2018-03-21T08:24:49.204Z,18.10
2018-03-21T08:27:17.555Z,11.50
2018-03-21T08:29:45.917Z,10.33
2018-03-21T08:32:14.987Z,9.63
2018-03-21T08:34:43.291Z,10.30
2018-03-21T08:37:12.416Z,12.70
2018-03-21T08:39:40.728Z,12.33
2018-03-21T08:42:09.069Z,13.63
2018-03-21T08:44:37.363Z,8.83
2018-03-21T08:47:05.693Z,14.60
2018-03-21T08:49:34.001Z,11.10
2018-03-21T08:52:03.067Z,12.90
2018-03-21T08:54:31.371Z,12.90
2018-03-21T08:57:00.476Z,17.60
2018-03-21T08:59:29.560Z,7.33
2018-03-21T09:01:57.907Z,13.30
2018-03-21T09:04:26.206Z,11.13
2018-03-21T09:06:54.537Z,13.87
2018-03-21T09:09:23.605Z,9.13
2018-03-21T09:11:51.931Z,11.40
2018-03-21T09:14:20.237Z,13.20
2018-03-21T09:16:48.597Z,13.43
2018-03-21T09:19:16.932Z,13.30
2018-03-21T09:21:45.242Z,10.53
2018-03-21T09:24:13.575Z,10.30
2018-03-21T09:26:41.907Z,15.70
2018-03-21T09:29:11.020Z,9.90
2018-03-21T09:31:39.341Z,14.87
2018-03-21T09:34:07.692Z,13.77
2018-03-21T09:36:36.022Z,8.97
2018-03-21T09:39:04.382Z,9.77
2018-03-21T09:41:32.662Z,7.23
2018-03-21T09:44:01.013Z,10.60
2018-03-21T09:46:29.422Z,8.23
2018-03-21T09:48:57.687Z,12.43
2018-03-21T09:51:25.983Z,9.43
2018-03-21T09:53:54.294Z,11.07
2018-03-21T09:56:22.620Z,12.37
2018-03-21T09:58:50.930Z,9.97
2018-03-21T10:01:19.279Z,13.40
2018-03-21T10:03:48.357Z,12.00
2018-03-21T10:06:16.719Z,16.07
2018-03-21T10:08:45.022Z,14.30
2018-03-21T10:11:14.158Z,14.37
2018-03-21T10:13:42.459Z,25.03
2018-03-21T10:16:10.824Z,16.70
2018-03-21T10:18:39.235Z,16.10
2018-03-21T10:21:07.535Z,13.57
2018-03-21T10:23:35.853Z,13.83
2018-03-21T10:26:04.934Z,14.50
2018-03-21T10:28:33.269Z,17.87
2018-03-21T10:31:01.597Z,14.27
2018-03-21T10:33:29.949Z,8.77
2018-03-21T10:35:59.015Z,12.13
2018-03-21T10:38:27.329Z,9.90
2018-03-21T10:40:55.644Z,9.60
2018-03-21T10:43:24.757Z,7.43
2018-03-21T10:45:53.816Z,9.03
2018-03-21T10:48:22.129Z,11.33
2018-03-21T10:50:50.431Z,9.30
2018-03-21T10:53:18.763Z,12.40
2018-03-21T10:55:47.108Z,12.53
2018-03-21T10:58:15.404Z,13.77
2018-03-21T11:00:43.716Z,12.70
2018-03-21T11:03:12.075Z,10.20
2018-03-21T11:05:40.399Z,8.63
2018-03-21T11:08:09.474Z,16.37
2018-03-21T11:10:37.764Z,9.67
2018-03-21T11:13:06.080Z,7.57
2018-03-21T11:15:35.183Z,8.03
2018-03-21T11:18:04.266Z,15.57
2018-03-21T11:20:33.368Z,6.90
2018-03-21T11:23:02.438Z,8.60
2018-03-21T11:25:30.793Z,7.57
2018-03-21T11:27:59.123Z,12.90
2018-03-21T11:30:28.204Z,8.60
2018-03-21T11:32:56.518Z,9.20
2018-03-21T11:35:25.582Z,7.40
2018-03-21T11:37:53.898Z,11.03
2018-03-21T11:40:23.075Z,10.67
2018-03-21T11:42:51.401Z,11.27
2018-03-21T11:45:20.308Z,7.70
2018-03-21T11:47:48.643Z,11.03
2018-03-21T11:50:16.984Z,11.03
2018-03-21T11:52:46.159Z,6.77
2018-03-21T11:55:14.602Z,3.90
2018-03-21T11:57:42.935Z,7.63
2018-03-21T12:00:11.288Z,7.00
2018-03-21T12:02:40.380Z,5.00
2018-03-21T12:05:08.681Z,3.60
2018-03-21T12:07:37.796Z,5.03
2018-03-21T12:10:06.094Z,5.80
2018-03-21T12:12:34.425Z,3.97
2018-03-21T12:15:02.753Z,7.40
2018-03-21T12:17:31.072Z,7.77
2018-03-21T12:19:59.392Z,8.10
2018-03-21T12:22:27.724Z,9.77
2018-03-21T12:24:56.020Z,12.60
2018-03-21T12:27:24.366Z,7.37
2018-03-21T12:29:52.756Z,14.77
2018-03-21T12:32:21.231Z,8.03
2018-03-21T12:34:49.550Z,7.17
2018-03-21T12:37:17.872Z,8.23
2018-03-21T12:39:47.924Z,6.93
2018-03-21T12:42:16.249Z,8.70
2018-03-21T12:44:44.603Z,7.57
2018-03-21T12:47:12.924Z,7.60
2018-03-21T12:49:42.078Z,4.80
2018-03-21T12:52:10.401Z,6.80
2018-03-21T12:54:38.724Z,9.43
2018-03-21T12:57:07.058Z,6.07
2018-03-21T12:59:35.396Z,8.27
2018-03-21T13:02:03.962Z,9.23
2018-03-21T13:04:33.073Z,9.40
2018-03-21T13:07:01.433Z,11.37
2018-03-21T13:09:30.507Z,7.67
2018-03-21T13:11:58.828Z,7.83
2018-03-21T13:14:27.922Z,8.60
2018-03-21T13:16:57.484Z,10.43
2018-03-21T13:19:25.820Z,10.90
2018-03-21T13:21:54.136Z,7.20
2018-03-21T13:24:22.500Z,8.67
2018-03-21T13:26:50.856Z,7.13
2018-03-21T13:29:19.957Z,10.83
2018-03-21T13:31:49.037Z,7.97
2018-03-21T13:34:17.358Z,9.50
2018-03-21T13:36:45.717Z,10.53
2018-03-21T13:39:14.032Z,7.63
2018-03-21T13:41:42.367Z,7.13
2018-03-21T13:44:11.492Z,6.60
2018-03-21T13:46:39.867Z,5.60
2018-03-21T13:49:08.939Z,5.17
2018-03-21T13:51:37.288Z,7.93
2018-03-21T13:54:05.630Z,9.23
2018-03-21T13:56:33.963Z,8.30
2018-03-21T13:59:02.440Z,7.83
2018-03-21T14:01:30.736Z,4.23
2018-03-21T14:03:59.036Z,9.73
2018-03-21T14:06:28.194Z,7.00
2018-03-21T14:08:56.497Z,10.97
2018-03-21T14:11:24.794Z,5.63
2018-03-21T14:13:53.106Z,3.40
2018-03-21T14:16:22.450Z,5.60
2018-03-21T14:18:50.738Z,7.50
2018-03-21T14:21:19.079Z,5.73
2018-03-21T14:23:48.156Z,6.33
2018-03-21T14:26:16.476Z,6.80
2018-03-21T14:28:45.595Z,7.83
2018-03-21T14:31:13.911Z,6.83
2018-03-21T14:33:42.568Z,5.90
2018-03-21T14:36:11.812Z,6.47
2018-03-21T14:38:40.214Z,7.50
2018-03-21T14:41:08.528Z,9.80
2018-03-21T14:43:36.855Z,9.10
2018-03-21T14:46:05.196Z,5.77
2018-03-21T14:48:33.512Z,5.13
2018-03-21T14:51:01.842Z,7.43
2018-03-21T14:53:30.916Z,6.20
2018-03-21T14:55:59.312Z,8.23
2018-03-21T14:58:28.425Z,7.53
2018-03-21T15:00:57.504Z,7.20
2018-03-21T15:03:25.830Z,7.17
2018-03-21T15:05:54.224Z,5.77
2018-03-21T15:08:22.536Z,5.37
2018-03-21T15:10:50.879Z,9.70
2018-03-21T15:13:19.231Z,7.57
2018-03-21T15:15:48.377Z,5.03
2018-03-21T15:18:16.712Z,11.50
2018-03-21T15:20:45.846Z,9.40
2018-03-21T15:23:14.252Z,5.60
2018-03-21T15:25:42.586Z,8.30
2018-03-21T15:28:10.925Z,5.27
2018-03-21T15:30:39.322Z,7.40
2018-03-21T15:33:07.643Z,5.00
2018-03-21T15:35:35.967Z,6.00
2018-03-21T15:38:05.010Z,6.33
2018-03-21T15:40:34.217Z,5.33
2018-03-21T15:43:02.541Z,4.90
2018-03-21T15:45:30.867Z,6.03
2018-03-21T15:47:59.992Z,8.33
2018-03-21T15:50:28.304Z,5.07
2018-03-21T15:52:57.093Z,4.67
2018-03-21T15:55:25.418Z,6.53
2018-03-21T15:57:53.925Z,6.37
2018-03-21T16:00:22.257Z,9.10
2018-03-21T16:02:50.577Z,6.70
2018-03-21T16:05:19.716Z,7.50
2018-03-21T16:07:48.107Z,7.97
2018-03-21T16:10:16.454Z,10.80
2018-03-21T16:12:45.568Z,8.50
2018-03-21T16:15:13.874Z,7.47
2018-03-21T16:17:42.192Z,10.27
2018-03-21T16:20:10.530Z,8.27
2018-03-21T16:22:38.851Z,8.17
2018-03-21T16:25:07.178Z,5.87
2018-03-21T16:27:35.827Z,9.37
2018-03-21T16:30:04.154Z,10.23
2018-03-21T16:32:32.471Z,10.40
2018-03-21T16:35:01.540Z,11.23
2018-03-21T16:37:29.856Z,12.00
2018-03-21T16:39:59.423Z,16.97
2018-03-21T16:42:27.758Z,11.67
2018-03-21T16:44:56.070Z,11.07
2018-03-21T16:47:25.157Z,12.90
2018-03-21T16:49:54.406Z,15.70
2018-03-21T16:52:22.712Z,13.57
2018-03-21T16:54:51.041Z,9.50
2018-03-21T16:57:20.173Z,14.33
2018-03-21T16:59:49.394Z,14.40
2018-03-21T17:02:17.737Z,15.40
2018-03-21T17:04:46.814Z,13.17
2018-03-21T17:07:15.913Z,12.77
2018-03-21T17:09:44.221Z,15.03
2018-03-21T17:12:12.637Z,14.80
2018-03-21T17:14:40.952Z,14.27
2018-03-21T17:17:09.283Z,17.50
2018-03-21T17:19:37.691Z,15.37
2018-03-21T17:22:06.012Z,24.50
2018-03-21T17:24:35.142Z,21.53
2018-03-21T17:27:03.484Z,25.03
2018-03-21T17:29:31.881Z,21.77
2018-03-21T17:32:00.227Z,20.53
2018-03-21T17:34:28.592Z,23.30
2018-03-21T17:36:56.986Z,21.90
2018-03-21T17:39:25.342Z,22.47
2018-03-21T17:41:53.725Z,22.10
2018-03-21T17:44:22.071Z,29.37
2018-03-21T17:46:50.363Z,29.10
2018-03-21T17:49:19.457Z,31.60
2018-03-21T17:51:48.679Z,30.33
2018-03-21T17:54:17.029Z,34.30
2018-03-21T17:56:45.356Z,31.03
2018-03-21T17:59:13.699Z,33.67
2018-03-21T18:01:42.027Z,29.70
2018-03-21T18:04:10.406Z,31.87
2018-03-21T18:06:38.750Z,34.60
2018-03-21T18:09:07.082Z,33.07
2018-03-21T18:11:35.465Z,32.50
2018-03-21T18:14:03.798Z,27.87
2018-03-21T18:16:32.129Z,35.13
2018-03-21T18:19:00.465Z,34.27
2018-03-21T18:21:28.830Z,41.33
2018-03-21T18:23:57.181Z,30.43
2018-03-21T18:26:25.517Z,35.23
2018-03-21T18:28:53.866Z,39.53
2018-03-21T18:31:22.183Z,41.37
2018-03-21T18:33:50.488Z,44.30
2018-03-21T18:36:19.531Z,44.60
2018-03-21T18:38:47.887Z,40.33
2018-03-21T18:41:16.211Z,44.97
2018-03-21T18:43:44.516Z,47.30
2018-03-21T18:46:13.585Z,46.70
2018-03-21T18:48:41.917Z,46.90
2018-03-21T18:51:11.046Z,44.40
2018-03-21T18:53:39.357Z,46.23
2018-03-21T18:56:07.682Z,53.90
2018-03-21T18:58:36.000Z,54.93
2018-03-21T19:01:04.397Z,53.60
2018-03-21T19:03:32.725Z,58.27
2018-03-21T19:06:01.819Z,48.33
2018-03-21T19:08:30.913Z,48.00
2018-03-21T19:10:59.982Z,52.23
2018-03-21T19:13:28.291Z,50.63
2018-03-21T19:15:57.427Z,48.20
2018-03-21T19:18:25.748Z,47.57
2018-03-21T19:20:54.402Z,52.40
2018-03-21T19:23:22.767Z,52.07
2018-03-21T19:25:51.096Z,52.43
2018-03-21T19:28:19.445Z,54.07
2018-03-21T19:30:47.782Z,57.90
2018-03-21T19:33:16.102Z,53.47
2018-03-21T19:35:44.471Z,45.80
2018-03-21T19:38:13.633Z,53.93
2018-03-21T19:40:41.937Z,48.57
2018-03-21T19:43:11.029Z,53.67
2018-03-21T19:45:39.355Z,48.50
2018-03-21T19:48:07.685Z,55.63
2018-03-21T19:50:35.979Z,49.87
2018-03-21T19:53:04.301Z,53.23
2018-03-21T19:55:32.621Z,49.63
2018-03-21T19:58:00.962Z,43.30
2018-03-21T20:00:29.312Z,46.00
2018-03-21T20:02:57.694Z,48.53
2018-03-21T20:05:26.784Z,49.07
2018-03-21T20:07:55.158Z,49.73
2018-03-21T20:10:23.518Z,43.93
2018-03-21T20:12:51.856Z,44.63
2018-03-21T20:15:20.979Z,39.53
2018-03-21T20:17:49.307Z,38.63
2018-03-21T20:20:17.650Z,45.97
2018-03-21T20:22:45.959Z,40.80
2018-03-21T20:25:14.293Z,42.03
2018-03-21T20:27:42.703Z,35.53
2018-03-21T20:30:11.017Z,39.13
2018-03-21T20:32:39.974Z,34.80
2018-03-21T20:35:08.360Z,38.53
2018-03-21T20:37:37.168Z,40.47
2018-03-21T20:40:05.486Z,33.90
2018-03-21T20:42:33.784Z,39.30
2018-03-21T20:45:02.887Z,42.27
2018-03-21T20:47:31.942Z,37.80
2018-03-21T20:50:00.248Z,36.80
2018-03-21T20:52:28.587Z,37.27
2018-03-21T20:54:56.939Z,31.90
2018-03-21T20:57:26.013Z,34.23
2018-03-21T20:59:54.325Z,31.83
2018-03-21T21:02:23.445Z,37.43
2018-03-21T21:04:51.753Z,36.37
2018-03-21T21:07:20.115Z,31.43
2018-03-21T21:09:48.479Z,34.67
2018-03-21T21:12:16.864Z,30.13
2018-03-21T21:14:45.975Z,32.17
2018-03-21T21:17:14.281Z,31.80
2018-03-21T21:19:42.606Z,28.20
2018-03-21T21:22:11.746Z,28.10
2018-03-21T21:24:40.853Z,27.27
2018-03-21T21:27:09.163Z,25.30
2018-03-21T21:29:37.477Z,30.17
2018-03-21T21:32:05.817Z,25.60
2018-03-21T21:34:34.137Z,30.40
2018-03-21T21:37:02.446Z,29.47
2018-03-21T21:39:30.779Z,24.03
2018-03-21T21:41:59.120Z,26.13
2018-03-21T21:44:27.437Z,24.50
2018-03-21T21:46:55.777Z,23.80
2018-03-21T21:49:24.071Z,25.00
2018-03-21T21:51:52.381Z,29.57
2018-03-21T21:54:20.686Z,27.10
2018-03-21T21:56:49.763Z,26.00
2018-03-21T21:59:18.122Z,25.10
2018-03-21T22:01:46.424Z,26.87
2018-03-21T22:04:14.753Z,23.23
2018-03-21T22:06:43.846Z,23.97
2018-03-21T22:09:12.945Z,23.13
2018-03-21T22:11:42.043Z,27.37
2018-03-21T22:14:10.403Z,25.77
2018-03-21T22:16:38.774Z,22.93
2018-03-21T22:19:07.086Z,25.60
2018-03-21T22:21:36.192Z,32.03
2018-03-21T22:24:05.260Z,22.40
2018-03-21T22:26:33.578Z,27.40
2018-03-21T22:29:02.690Z,25.30
2018-03-21T22:31:31.025Z,23.43
2018-03-21T22:33:59.367Z,26.63
2018-03-21T22:36:27.679Z,24.17
2018-03-21T22:38:56.001Z,23.00
2018-03-21T22:41:25.099Z,26.03
2018-03-21T22:43:54.226Z,27.53
2018-03-21T22:46:22.534Z,25.63
2018-03-21T22:48:51.611Z,26.10
2018-03-21T22:51:19.919Z,26.30
2018-03-21T22:53:48.234Z,28.83
2018-03-21T22:56:17.316Z,26.53
2018-03-21T22:58:45.642Z,25.77
2018-03-21T23:01:13.950Z,28.77
2018-03-21T23:03:42.273Z,27.70
2018-03-21T23:06:10.617Z,21.93
2018-03-21T23:08:38.970Z,24.07
2018-03-21T23:11:08.032Z,27.23
2018-03-21T23:13:37.615Z,26.47
2018-03-21T23:16:05.942Z,22.60
2018-03-21T23:18:35.116Z,29.57
2018-03-21T23:21:03.433Z,29.50
2018-03-21T23:23:32.546Z,29.97
2018-03-21T23:26:00.923Z,34.53
2018-03-21T23:28:29.993Z,34.87
2018-03-21T23:30:59.207Z,34.27
2018-03-21T23:33:28.324Z,31.57
2018-03-21T23:35:56.665Z,33.97
2018-03-21T23:38:24.999Z,31.10
2018-03-21T23:40:53.317Z,32.40
2018-03-21T23:43:21.622Z,41.40
2018-03-21T23:45:50.054Z,39.17
2018-03-21T23:48:18.346Z,28.97
2018-03-21T23:50:46.661Z,34.83
2018-03-21T23:53:15.061Z,33.00
2018-03-21T23:55:43.399Z,31.70
2018-03-21T23:58:11.747Z,37.10
